sensor_id;sensor_type;location;lat;lon;timestamp;temperature;humidity
59855;DHT22;45732;52.850;6.896;2023-04-19T00:01:47;9.60;99.90
59855;DHT22;45732;52.850;6.896;2023-04-19T00:04:12;9.60;99.90
59855;DHT22;45732;52.850;6.896;2023-04-19T00:06:39;9.70;99.90
59855;DHT22;45732;52.850;6.896;2023-04-19T00:09:07;9.60;99.90
59855;DHT22;45732;52.850;6.896;2023-04-19T00:11:32;9.60;99.90
59855;DHT22;45732;52.850;6.896;2023-04-19T00:13:58;9.60;99.90
59855;DHT22;45732;52.850;6.896;2023-04-19T00:16:24;9.60;99.90
59855;DHT22;45732;52.850;6.896;2023-04-19T00:18:50;9.60;99.90
59855;DHT22;45732;52.850;6.896;2023-04-19T00:21:16;9.60;99.90
59855;DHT22;45732;52.850;6.896;2023-04-19T00:23:41;9.50;99.90
59855;DHT22;45732;52.850;6.896;2023-04-19T00:26:07;9.50;99.90
59855;DHT22;45732;52.850;6.896;2023-04-19T00:28:33;9.50;99.90
59855;DHT22;45732;52.850;6.896;2023-04-19T00:30:59;9.50;99.90
59855;DHT22;45732;52.850;6.896;2023-04-19T00:33:25;9.50;99.90
59855;DHT22;45732;52.850;6.896;2023-04-19T00:35:50;9.50;99.90
59855;DHT22;45732;52.850;6.896;2023-04-19T00:38:16;9.40;99.90
59855;DHT22;45732;52.850;6.896;2023-04-19T00:40:42;9.40;99.90
59855;DHT22;45732;52.850;6.896;2023-04-19T00:43:07;9.40;99.90
59855;DHT22;45732;52.850;6.896;2023-04-19T00:45:34;9.30;99.90
59855;DHT22;45732;52.850;6.896;2023-04-19T00:48:01;9.40;99.90
59855;DHT22;45732;52.850;6.896;2023-04-19T00:50:26;9.30;99.90
59855;DHT22;45732;52.850;6.896;2023-04-19T00:52:54;9.30;99.90
59855;DHT22;45732;52.850;6.896;2023-04-19T00:55:22;9.30;99.90
59855;DHT22;45732;52.850;6.896;2023-04-19T00:57:47;9.30;99.90
59855;DHT22;45732;52.850;6.896;2023-04-19T01:00:13;9.40;99.90
59855;DHT22;45732;52.850;6.896;2023-04-19T01:02:39;9.40;99.90
59855;DHT22;45732;52.850;6.896;2023-04-19T01:05:05;9.40;99.90
59855;DHT22;45732;52.850;6.896;2023-04-19T01:07:32;9.40;99.90
59855;DHT22;45732;52.850;6.896;2023-04-19T01:09:58;9.40;99.90
59855;DHT22;45732;52.850;6.896;2023-04-19T01:12:24;9.40;99.90
59855;DHT22;45732;52.850;6.896;2023-04-19T01:14:49;9.30;99.90
59855;DHT22;45732;52.850;6.896;2023-04-19T01:17:15;9.30;99.90
59855;DHT22;45732;52.850;6.896;2023-04-19T01:19:42;9.30;99.90
59855;DHT22;45732;52.850;6.896;2023-04-19T01:22:08;9.30;99.90
59855;DHT22;45732;52.850;6.896;2023-04-19T01:24:34;9.30;99.90
59855;DHT22;45732;52.850;6.896;2023-04-19T01:27:00;9.30;99.90
59855;DHT22;45732;52.850;6.896;2023-04-19T01:29:26;9.30;99.90
59855;DHT22;45732;52.850;6.896;2023-04-19T01:31:52;9.20;99.90
59855;DHT22;45732;52.850;6.896;2023-04-19T01:34:21;9.20;99.90
59855;DHT22;45732;52.850;6.896;2023-04-19T01:36:50;9.20;99.90
59855;DHT22;45732;52.850;6.896;2023-04-19T01:39:16;9.10;99.90
59855;DHT22;45732;52.850;6.896;2023-04-19T01:41:41;9.10;99.90
59855;DHT22;45732;52.850;6.896;2023-04-19T01:44:07;9.00;99.90
59855;DHT22;45732;52.850;6.896;2023-04-19T01:46:33;9.00;99.90
59855;DHT22;45732;52.850;6.896;2023-04-19T01:48:58;9.00;99.90
59855;DHT22;45732;52.850;6.896;2023-04-19T01:51:24;9.10;99.90
59855;DHT22;45732;52.850;6.896;2023-04-19T01:53:50;9.10;99.90
59855;DHT22;45732;52.850;6.896;2023-04-19T01:56:18;9.00;99.90
59855;DHT22;45732;52.850;6.896;2023-04-19T01:58:44;8.90;99.90
59855;DHT22;45732;52.850;6.896;2023-04-19T02:01:10;9.00;99.90
59855;DHT22;45732;52.850;6.896;2023-04-19T02:03:39;8.90;99.90
59855;DHT22;45732;52.850;6.896;2023-04-19T02:06:09;8.80;99.90
59855;DHT22;45732;52.850;6.896;2023-04-19T02:08:34;8.70;99.90
59855;DHT22;45732;52.850;6.896;2023-04-19T02:11:05;8.70;99.90
59855;DHT22;45732;52.850;6.896;2023-04-19T02:13:32;8.70;99.90
59855;DHT22;45732;52.850;6.896;2023-04-19T02:15:57;8.70;99.90
59855;DHT22;45732;52.850;6.896;2023-04-19T02:18:23;8.70;99.90
59855;DHT22;45732;52.850;6.896;2023-04-19T02:20:51;8.60;99.90
59855;DHT22;45732;52.850;6.896;2023-04-19T02:23:16;8.60;99.90
59855;DHT22;45732;52.850;6.896;2023-04-19T02:25:42;8.50;99.90
59855;DHT22;45732;52.850;6.896;2023-04-19T02:28:07;8.60;99.90
59855;DHT22;45732;52.850;6.896;2023-04-19T02:30:35;8.50;99.90
59855;DHT22;45732;52.850;6.896;2023-04-19T02:33:00;8.50;99.90
59855;DHT22;45732;52.850;6.896;2023-04-19T02:35:26;8.50;99.90
59855;DHT22;45732;52.850;6.896;2023-04-19T02:37:52;8.50;99.90
59855;DHT22;45732;52.850;6.896;2023-04-19T02:40:17;8.50;99.90
59855;DHT22;45732;52.850;6.896;2023-04-19T02:42:43;8.40;99.90
59855;DHT22;45732;52.850;6.896;2023-04-19T02:45:09;8.40;99.90
59855;DHT22;45732;52.850;6.896;2023-04-19T02:47:35;8.40;99.90
59855;DHT22;45732;52.850;6.896;2023-04-19T02:50:01;8.40;99.90
59855;DHT22;45732;52.850;6.896;2023-04-19T02:52:26;8.30;99.90
59855;DHT22;45732;52.850;6.896;2023-04-19T02:54:52;8.30;99.90
59855;DHT22;45732;52.850;6.896;2023-04-19T02:57:18;8.30;99.90
59855;DHT22;45732;52.850;6.896;2023-04-19T02:59:43;8.20;99.90
59855;DHT22;45732;52.850;6.896;2023-04-19T03:02:09;8.20;99.90
59855;DHT22;45732;52.850;6.896;2023-04-19T03:04:35;8.10;99.90
59855;DHT22;45732;52.850;6.896;2023-04-19T03:07:00;8.10;99.90
59855;DHT22;45732;52.850;6.896;2023-04-19T03:09:26;8.00;99.90
59855;DHT22;45732;52.850;6.896;2023-04-19T03:11:55;7.90;99.90
59855;DHT22;45732;52.850;6.896;2023-04-19T03:14:20;7.90;99.90
59855;DHT22;45732;52.850;6.896;2023-04-19T03:16:46;7.80;99.90
59855;DHT22;45732;52.850;6.896;2023-04-19T03:19:12;7.90;99.90
59855;DHT22;45732;52.850;6.896;2023-04-19T03:21:37;7.80;99.90
59855;DHT22;45732;52.850;6.896;2023-04-19T03:24:03;7.60;99.90
59855;DHT22;45732;52.850;6.896;2023-04-19T03:26:29;7.60;99.90
59855;DHT22;45732;52.850;6.896;2023-04-19T03:28:55;7.60;99.90
59855;DHT22;45732;52.850;6.896;2023-04-19T03:31:20;7.60;99.90
59855;DHT22;45732;52.850;6.896;2023-04-19T03:33:46;7.70;99.90
59855;DHT22;45732;52.850;6.896;2023-04-19T03:36:11;7.60;99.90
59855;DHT22;45732;52.850;6.896;2023-04-19T03:38:37;7.60;99.90
59855;DHT22;45732;52.850;6.896;2023-04-19T03:41:03;7.60;99.90
59855;DHT22;45732;52.850;6.896;2023-04-19T03:43:28;7.50;99.90
59855;DHT22;45732;52.850;6.896;2023-04-19T03:45:54;7.50;99.90
59855;DHT22;45732;52.850;6.896;2023-04-19T03:48:20;7.40;99.90
59855;DHT22;45732;52.850;6.896;2023-04-19T03:50:45;7.40;99.90
59855;DHT22;45732;52.850;6.896;2023-04-19T03:53:11;7.40;99.90
59855;DHT22;45732;52.850;6.896;2023-04-19T03:55:37;7.40;99.90
59855;DHT22;45732;52.850;6.896;2023-04-19T03:58:34;7.40;99.90
59855;DHT22;45732;52.850;6.896;2023-04-19T06:43:42;8.30;99.90
59855;DHT22;45732;52.850;6.896;2023-04-19T06:46:09;8.40;99.90
59855;DHT22;45732;52.850;6.896;2023-04-19T06:51:22;8.50;99.90
59855;DHT22;45732;52.850;6.896;2023-04-19T06:53:49;8.50;99.90
59855;DHT22;45732;52.850;6.896;2023-04-19T06:56:15;8.60;99.90
59855;DHT22;45732;52.850;6.896;2023-04-19T06:58:41;8.60;99.90
59855;DHT22;45732;52.850;6.896;2023-04-19T07:01:06;8.70;99.90
59855;DHT22;45732;52.850;6.896;2023-04-19T07:03:32;8.70;99.90
59855;DHT22;45732;52.850;6.896;2023-04-19T07:05:58;8.80;99.90
59855;DHT22;45732;52.850;6.896;2023-04-19T07:08:25;8.80;99.90
59855;DHT22;45732;52.850;6.896;2023-04-19T07:10:51;8.80;99.90
59855;DHT22;45732;52.850;6.896;2023-04-19T07:13:17;8.90;99.90
59855;DHT22;45732;52.850;6.896;2023-04-19T07:15:43;8.90;99.90
59855;DHT22;45732;52.850;6.896;2023-04-19T07:18:08;9.00;99.90
59855;DHT22;45732;52.850;6.896;2023-04-19T07:20:35;9.00;99.90
59855;DHT22;45732;52.850;6.896;2023-04-19T07:23:01;9.00;99.90
59855;DHT22;45732;52.850;6.896;2023-04-19T07:25:27;9.10;99.90
59855;DHT22;45732;52.850;6.896;2023-04-19T07:27:53;9.20;99.90
59855;DHT22;45732;52.850;6.896;2023-04-19T07:30:19;9.20;99.90
59855;DHT22;45732;52.850;6.896;2023-04-19T07:32:45;9.20;99.90
59855;DHT22;45732;52.850;6.896;2023-04-19T07:35:11;9.30;99.90
59855;DHT22;45732;52.850;6.896;2023-04-19T07:37:37;9.30;99.90
59855;DHT22;45732;52.850;6.896;2023-04-19T07:40:03;9.40;99.90
59855;DHT22;45732;52.850;6.896;2023-04-19T07:42:30;9.40;99.90
59855;DHT22;45732;52.850;6.896;2023-04-19T07:44:56;9.50;99.90
59855;DHT22;45732;52.850;6.896;2023-04-19T07:47:21;9.50;99.90
59855;DHT22;45732;52.850;6.896;2023-04-19T07:49:52;9.60;99.90
59855;DHT22;45732;52.850;6.896;2023-04-19T07:52:18;9.60;99.90
59855;DHT22;45732;52.850;6.896;2023-04-19T07:54:44;9.70;99.90
59855;DHT22;45732;52.850;6.896;2023-04-19T07:57:09;9.70;99.90
59855;DHT22;45732;52.850;6.896;2023-04-19T07:59:35;9.70;99.90
59855;DHT22;45732;52.850;6.896;2023-04-19T08:02:01;9.80;99.90
59855;DHT22;45732;52.850;6.896;2023-04-19T08:04:26;9.80;99.90
59855;DHT22;45732;52.850;6.896;2023-04-19T08:06:52;9.80;99.90
59855;DHT22;45732;52.850;6.896;2023-04-19T08:09:18;9.90;99.90
59855;DHT22;45732;52.850;6.896;2023-04-19T08:11:43;10.00;99.90
59855;DHT22;45732;52.850;6.896;2023-04-19T08:14:10;10.00;99.90
59855;DHT22;45732;52.850;6.896;2023-04-19T08:16:35;10.10;99.90
59855;DHT22;45732;52.850;6.896;2023-04-19T08:19:01;10.20;99.90
59855;DHT22;45732;52.850;6.896;2023-04-19T08:21:27;10.20;99.90
59855;DHT22;45732;52.850;6.896;2023-04-19T08:23:52;10.30;99.90
59855;DHT22;45732;52.850;6.896;2023-04-19T08:26:18;10.40;99.90
59855;DHT22;45732;52.850;6.896;2023-04-19T08:28:44;10.40;99.90
59855;DHT22;45732;52.850;6.896;2023-04-19T08:31:10;10.50;99.90
59855;DHT22;45732;52.850;6.896;2023-04-19T08:33:35;10.50;99.90
59855;DHT22;45732;52.850;6.896;2023-04-19T08:36:01;10.60;99.90
59855;DHT22;45732;52.850;6.896;2023-04-19T08:38:27;10.60;99.90
59855;DHT22;45732;52.850;6.896;2023-04-19T08:40:53;10.70;99.90
59855;DHT22;45732;52.850;6.896;2023-04-19T08:43:24;10.70;99.90
59855;DHT22;45732;52.850;6.896;2023-04-19T08:45:50;10.80;99.90
59855;DHT22;45732;52.850;6.896;2023-04-19T08:48:17;10.80;99.90
59855;DHT22;45732;52.850;6.896;2023-04-19T08:50:43;10.80;99.90
59855;DHT22;45732;52.850;6.896;2023-04-19T08:53:13;10.90;99.90
59855;DHT22;45732;52.850;6.896;2023-04-19T08:55:40;11.00;99.90
59855;DHT22;45732;52.850;6.896;2023-04-19T08:58:07;11.00;99.90
59855;DHT22;45732;52.850;6.896;2023-04-19T09:00:36;11.10;99.90
59855;DHT22;45732;52.850;6.896;2023-04-19T09:03:02;11.20;99.90
59855;DHT22;45732;52.850;6.896;2023-04-19T09:05:28;11.20;99.90
59855;DHT22;45732;52.850;6.896;2023-04-19T09:07:54;11.20;99.90
59855;DHT22;45732;52.850;6.896;2023-04-19T09:10:51;11.20;99.90
59855;DHT22;45732;52.850;6.896;2023-04-19T09:13:17;11.30;99.90
59855;DHT22;45732;52.850;6.896;2023-04-19T09:15:43;11.30;99.90
59855;DHT22;45732;52.850;6.896;2023-04-19T09:18:09;11.40;99.90
59855;DHT22;45732;52.850;6.896;2023-04-19T09:20:40;11.50;99.90
59855;DHT22;45732;52.850;6.896;2023-04-19T09:23:08;11.50;99.90
59855;DHT22;45732;52.850;6.896;2023-04-19T09:25:37;11.50;99.90
59855;DHT22;45732;52.850;6.896;2023-04-19T09:28:13;11.60;99.90
59855;DHT22;45732;52.850;6.896;2023-04-19T09:30:40;11.60;99.90
59855;DHT22;45732;52.850;6.896;2023-04-19T09:33:06;11.60;99.90
59855;DHT22;45732;52.850;6.896;2023-04-19T09:35:59;11.80;99.90
59855;DHT22;45732;52.850;6.896;2023-04-19T09:38:24;11.80;99.90
59855;DHT22;45732;52.850;6.896;2023-04-19T09:40:51;11.80;99.90
59855;DHT22;45732;52.850;6.896;2023-04-19T09:43:23;11.90;99.90
59855;DHT22;45732;52.850;6.896;2023-04-19T09:45:52;11.90;99.90
59855;DHT22;45732;52.850;6.896;2023-04-19T09:48:18;12.00;99.90
59855;DHT22;45732;52.850;6.896;2023-04-19T09:50:57;12.00;99.90
59855;DHT22;45732;52.850;6.896;2023-04-19T09:53:24;12.10;99.90
59855;DHT22;45732;52.850;6.896;2023-04-19T09:55:51;12.10;99.90
59855;DHT22;45732;52.850;6.896;2023-04-19T09:58:18;12.20;99.90
59855;DHT22;45732;52.850;6.896;2023-04-19T10:00:45;12.20;99.90
59855;DHT22;45732;52.850;6.896;2023-04-19T10:03:15;12.30;99.90
59855;DHT22;45732;52.850;6.896;2023-04-19T10:05:42;12.30;99.90
59855;DHT22;45732;52.850;6.896;2023-04-19T10:08:12;12.40;99.90
59855;DHT22;45732;52.850;6.896;2023-04-19T10:10:39;12.50;99.90
59855;DHT22;45732;52.850;6.896;2023-04-19T10:13:07;12.50;99.90
59855;DHT22;45732;52.850;6.896;2023-04-19T10:15:35;12.60;99.90
59855;DHT22;45732;52.850;6.896;2023-04-19T10:18:03;12.70;99.90
59855;DHT22;45732;52.850;6.896;2023-04-19T10:20:40;12.80;99.90
59855;DHT22;45732;52.850;6.896;2023-04-19T10:23:07;12.90;99.90
59855;DHT22;45732;52.850;6.896;2023-04-19T10:25:36;13.00;99.90
59855;DHT22;45732;52.850;6.896;2023-04-19T10:28:02;13.00;99.90
59855;DHT22;45732;52.850;6.896;2023-04-19T10:30:27;13.00;99.90
59855;DHT22;45732;52.850;6.896;2023-04-19T10:32:54;13.10;99.90
59855;DHT22;45732;52.850;6.896;2023-04-19T10:35:21;13.10;99.90
59855;DHT22;45732;52.850;6.896;2023-04-19T10:43:16;13.30;99.90
59855;DHT22;45732;52.850;6.896;2023-04-19T10:45:43;13.30;99.90
59855;DHT22;45732;52.850;6.896;2023-04-19T10:51:10;13.40;99.60
59855;DHT22;45732;52.850;6.896;2023-04-19T10:57:01;13.60;99.10
59855;DHT22;45732;52.850;6.896;2023-04-19T10:59:30;13.50;97.90
59855;DHT22;45732;52.850;6.896;2023-04-19T11:02:01;13.60;99.60
59855;DHT22;45732;52.850;6.896;2023-04-19T11:06:56;13.80;99.90
59855;DHT22;45732;52.850;6.896;2023-04-19T11:09:27;13.80;99.90
59855;DHT22;45732;52.850;6.896;2023-04-19T11:11:59;13.80;99.70
59855;DHT22;45732;52.850;6.896;2023-04-19T11:14:26;13.90;99.80
59855;DHT22;45732;52.850;6.896;2023-04-19T11:16:54;13.80;99.70
59855;DHT22;45732;52.850;6.896;2023-04-19T11:19:20;13.90;99.90
59855;DHT22;45732;52.850;6.896;2023-04-19T11:21:46;14.00;99.90
59855;DHT22;45732;52.850;6.896;2023-04-19T11:24:12;14.10;99.90
59855;DHT22;45732;52.850;6.896;2023-04-19T11:26:42;14.10;99.90
59855;DHT22;45732;52.850;6.896;2023-04-19T11:29:09;14.10;99.90
59855;DHT22;45732;52.850;6.896;2023-04-19T11:31:35;14.20;99.90
59855;DHT22;45732;52.850;6.896;2023-04-19T11:34:04;14.20;99.90
59855;DHT22;45732;52.850;6.896;2023-04-19T11:36:30;14.30;99.90
59855;DHT22;45732;52.850;6.896;2023-04-19T11:38:57;14.30;99.90
59855;DHT22;45732;52.850;6.896;2023-04-19T11:41:23;14.30;99.90
59855;DHT22;45732;52.850;6.896;2023-04-19T11:43:48;14.30;99.90
59855;DHT22;45732;52.850;6.896;2023-04-19T11:46:14;14.40;99.90
59855;DHT22;45732;52.850;6.896;2023-04-19T11:48:51;14.40;99.90
59855;DHT22;45732;52.850;6.896;2023-04-19T11:51:17;14.50;99.90
59855;DHT22;45732;52.850;6.896;2023-04-19T11:53:43;14.60;99.90
59855;DHT22;45732;52.850;6.896;2023-04-19T11:56:09;14.60;99.90
59855;DHT22;45732;52.850;6.896;2023-04-19T11:58:38;14.60;99.90
59855;DHT22;45732;52.850;6.896;2023-04-19T12:01:12;14.60;99.90
59855;DHT22;45732;52.850;6.896;2023-04-19T12:08:44;14.60;99.90
59855;DHT22;45732;52.850;6.896;2023-04-19T12:11:12;14.50;99.90
59855;DHT22;45732;52.850;6.896;2023-04-19T12:13:38;14.50;99.90
59855;DHT22;45732;52.850;6.896;2023-04-19T12:16:05;14.60;99.90
59855;DHT22;45732;52.850;6.896;2023-04-19T12:18:48;14.50;99.90
59855;DHT22;45732;52.850;6.896;2023-04-19T12:21:27;14.50;99.90
59855;DHT22;45732;52.850;6.896;2023-04-19T12:23:58;14.50;99.90
59855;DHT22;45732;52.850;6.896;2023-04-19T12:26:28;14.50;99.90
59855;DHT22;45732;52.850;6.896;2023-04-19T12:28:55;14.50;99.90
59855;DHT22;45732;52.850;6.896;2023-04-19T12:31:21;14.60;99.90
59855;DHT22;45732;52.850;6.896;2023-04-19T12:33:47;14.60;99.90
59855;DHT22;45732;52.850;6.896;2023-04-19T12:36:13;14.60;99.90
59855;DHT22;45732;52.850;6.896;2023-04-19T12:38:39;14.60;99.90
59855;DHT22;45732;52.850;6.896;2023-04-19T12:41:06;14.50;99.90
59855;DHT22;45732;52.850;6.896;2023-04-19T12:43:32;14.60;99.90
59855;DHT22;45732;52.850;6.896;2023-04-19T12:45:59;14.60;99.90
59855;DHT22;45732;52.850;6.896;2023-04-19T12:48:25;14.50;99.90
59855;DHT22;45732;52.850;6.896;2023-04-19T12:50:51;14.50;99.90
59855;DHT22;45732;52.850;6.896;2023-04-19T12:53:17;14.50;99.90
59855;DHT22;45732;52.850;6.896;2023-04-19T12:55:43;14.50;99.90
59855;DHT22;45732;52.850;6.896;2023-04-19T12:58:14;14.50;99.90
59855;DHT22;45732;52.850;6.896;2023-04-19T13:00:40;14.50;99.90
59855;DHT22;45732;52.850;6.896;2023-04-19T13:03:06;14.50;99.90
59855;DHT22;45732;52.850;6.896;2023-04-19T13:05:32;14.50;99.90
59855;DHT22;45732;52.850;6.896;2023-04-19T13:07:57;14.60;99.90
59855;DHT22;45732;52.850;6.896;2023-04-19T13:10:23;14.60;99.90
59855;DHT22;45732;52.850;6.896;2023-04-19T13:12:49;14.60;99.90
59855;DHT22;45732;52.850;6.896;2023-04-19T13:15:15;14.60;99.90
59855;DHT22;45732;52.850;6.896;2023-04-19T13:17:40;14.60;99.90
59855;DHT22;45732;52.850;6.896;2023-04-19T13:20:06;14.70;99.90
59855;DHT22;45732;52.850;6.896;2023-04-19T13:22:32;14.70;99.90
59855;DHT22;45732;52.850;6.896;2023-04-19T13:24:58;14.70;99.90
59855;DHT22;45732;52.850;6.896;2023-04-19T13:27:24;14.70;99.90
59855;DHT22;45732;52.850;6.896;2023-04-19T13:29:50;14.70;99.90
59855;DHT22;45732;52.850;6.896;2023-04-19T13:32:15;14.70;99.90
59855;DHT22;45732;52.850;6.896;2023-04-19T13:34:41;14.70;99.90
59855;DHT22;45732;52.850;6.896;2023-04-19T13:37:07;14.70;99.90
59855;DHT22;45732;52.850;6.896;2023-04-19T13:39:33;14.70;99.90
59855;DHT22;45732;52.850;6.896;2023-04-19T13:41:59;14.70;99.90
59855;DHT22;45732;52.850;6.896;2023-04-19T13:44:26;14.70;99.90
59855;DHT22;45732;52.850;6.896;2023-04-19T13:46:52;14.80;99.90
59855;DHT22;45732;52.850;6.896;2023-04-19T13:49:18;14.80;99.90
59855;DHT22;45732;52.850;6.896;2023-04-19T13:51:44;14.80;99.90
59855;DHT22;45732;52.850;6.896;2023-04-19T13:54:09;14.80;99.90
59855;DHT22;45732;52.850;6.896;2023-04-19T13:56:35;14.80;99.90
59855;DHT22;45732;52.850;6.896;2023-04-19T13:59:01;14.80;99.90
59855;DHT22;45732;52.850;6.896;2023-04-19T14:01:26;14.80;99.90
59855;DHT22;45732;52.850;6.896;2023-04-19T14:03:52;14.80;99.90
59855;DHT22;45732;52.850;6.896;2023-04-19T14:06:18;14.80;99.90
59855;DHT22;45732;52.850;6.896;2023-04-19T14:08:43;14.80;99.90
59855;DHT22;45732;52.850;6.896;2023-04-19T14:11:09;14.80;99.90
59855;DHT22;45732;52.850;6.896;2023-04-19T14:13:36;14.80;99.90
59855;DHT22;45732;52.850;6.896;2023-04-19T14:16:02;14.90;99.90
59855;DHT22;45732;52.850;6.896;2023-04-19T14:18:28;14.90;99.90
59855;DHT22;45732;52.850;6.896;2023-04-19T14:20:54;14.90;99.90
59855;DHT22;45732;52.850;6.896;2023-04-19T14:23:20;14.90;99.90
59855;DHT22;45732;52.850;6.896;2023-04-19T14:25:46;14.90;99.90
59855;DHT22;45732;52.850;6.896;2023-04-19T14:28:11;14.90;99.90
59855;DHT22;45732;52.850;6.896;2023-04-19T14:30:38;14.90;99.90
59855;DHT22;45732;52.850;6.896;2023-04-19T14:33:04;14.90;99.90
59855;DHT22;45732;52.850;6.896;2023-04-19T14:35:30;14.90;99.90
59855;DHT22;45732;52.850;6.896;2023-04-19T14:37:55;15.00;99.90
59855;DHT22;45732;52.850;6.896;2023-04-19T14:40:22;15.00;99.90
59855;DHT22;45732;52.850;6.896;2023-04-19T14:42:47;15.20;99.90
59855;DHT22;45732;52.850;6.896;2023-04-19T14:45:13;15.20;99.90
59855;DHT22;45732;52.850;6.896;2023-04-19T14:47:39;15.10;99.90
59855;DHT22;45732;52.850;6.896;2023-04-19T14:50:05;15.00;99.90
59855;DHT22;45732;52.850;6.896;2023-04-19T14:52:31;15.00;99.90
59855;DHT22;45732;52.850;6.896;2023-04-19T14:54:57;15.10;99.90
59855;DHT22;45732;52.850;6.896;2023-04-19T14:57:25;15.20;99.90
59855;DHT22;45732;52.850;6.896;2023-04-19T14:59:54;15.30;99.90
59855;DHT22;45732;52.850;6.896;2023-04-19T15:02:23;15.30;99.90
59855;DHT22;45732;52.850;6.896;2023-04-19T15:04:49;15.50;99.90
59855;DHT22;45732;52.850;6.896;2023-04-19T15:07:15;15.50;99.40
59855;DHT22;45732;52.850;6.896;2023-04-19T15:09:40;15.60;99.50
59855;DHT22;45732;52.850;6.896;2023-04-19T15:12:06;15.60;99.60
59855;DHT22;45732;52.850;6.896;2023-04-19T15:14:32;15.60;99.20
59855;DHT22;45732;52.850;6.896;2023-04-19T15:16:57;15.60;99.40
59855;DHT22;45732;52.850;6.896;2023-04-19T15:19:23;15.70;99.10
59855;DHT22;45732;52.850;6.896;2023-04-19T15:21:49;15.90;98.50
59855;DHT22;45732;52.850;6.896;2023-04-19T15:24:15;15.90;98.30
59855;DHT22;45732;52.850;6.896;2023-04-19T15:26:40;15.60;98.30
59855;DHT22;45732;52.850;6.896;2023-04-19T15:29:06;15.70;98.20
59855;DHT22;45732;52.850;6.896;2023-04-19T15:31:32;15.90;98.00
59855;DHT22;45732;52.850;6.896;2023-04-19T15:34:00;16.10;97.90
59855;DHT22;45732;52.850;6.896;2023-04-19T15:36:27;16.30;97.30
59855;DHT22;45732;52.850;6.896;2023-04-19T15:38:53;16.60;96.70
59855;DHT22;45732;52.850;6.896;2023-04-19T15:41:18;16.90;97.00
59855;DHT22;45732;52.850;6.896;2023-04-19T15:43:44;17.30;96.00
59855;DHT22;45732;52.850;6.896;2023-04-19T15:46:13;17.70;95.30
59855;DHT22;45732;52.850;6.896;2023-04-19T15:48:40;18.00;94.20
59855;DHT22;45732;52.850;6.896;2023-04-19T15:51:06;18.20;93.30
59855;DHT22;45732;52.850;6.896;2023-04-19T15:53:33;18.40;92.90
59855;DHT22;45732;52.850;6.896;2023-04-19T15:56:00;18.60;92.40
59855;DHT22;45732;52.850;6.896;2023-04-19T15:58:26;18.90;91.90
59855;DHT22;45732;52.850;6.896;2023-04-19T16:00:52;19.00;91.40
59855;DHT22;45732;52.850;6.896;2023-04-19T16:03:18;19.10;90.60
59855;DHT22;45732;52.850;6.896;2023-04-19T16:05:43;19.00;90.10
59855;DHT22;45732;52.850;6.896;2023-04-19T16:08:10;18.80;88.90
59855;DHT22;45732;52.850;6.896;2023-04-19T16:10:36;18.80;88.20
59855;DHT22;45732;52.850;6.896;2023-04-19T16:13:03;18.80;87.40
59855;DHT22;45732;52.850;6.896;2023-04-19T16:15:29;18.70;87.50
59855;DHT22;45732;52.850;6.896;2023-04-19T16:17:55;18.70;88.10
59855;DHT22;45732;52.850;6.896;2023-04-19T16:20:20;18.90;85.50
59855;DHT22;45732;52.850;6.896;2023-04-19T16:22:46;18.50;84.90
59855;DHT22;45732;52.850;6.896;2023-04-19T16:25:13;18.40;83.90
59855;DHT22;45732;52.850;6.896;2023-04-19T16:27:44;18.00;84.60
59855;DHT22;45732;52.850;6.896;2023-04-19T16:30:11;17.90;85.70
59855;DHT22;45732;52.850;6.896;2023-04-19T16:32:37;18.00;84.60
59855;DHT22;45732;52.850;6.896;2023-04-19T16:35:04;18.10;84.70
59855;DHT22;45732;52.850;6.896;2023-04-19T16:37:30;18.30;84.70
59855;DHT22;45732;52.850;6.896;2023-04-19T16:39:56;18.10;84.20
59855;DHT22;45732;52.850;6.896;2023-04-19T16:42:22;18.20;83.50
59855;DHT22;45732;52.850;6.896;2023-04-19T16:44:48;18.30;81.50
59855;DHT22;45732;52.850;6.896;2023-04-19T16:47:13;18.40;79.90
59855;DHT22;45732;52.850;6.896;2023-04-19T16:49:39;18.60;78.90
59855;DHT22;45732;52.850;6.896;2023-04-19T16:52:05;18.80;78.20
59855;DHT22;45732;52.850;6.896;2023-04-19T16:54:31;19.00;77.40
59855;DHT22;45732;52.850;6.896;2023-04-19T16:56:56;19.00;77.00
59855;DHT22;45732;52.850;6.896;2023-04-19T16:59:22;18.90;76.60
59855;DHT22;45732;52.850;6.896;2023-04-19T17:01:48;18.90;77.90
59855;DHT22;45732;52.850;6.896;2023-04-19T17:04:13;19.10;77.60
59855;DHT22;45732;52.850;6.896;2023-04-19T17:06:39;19.00;77.40
59855;DHT22;45732;52.850;6.896;2023-04-19T17:09:05;19.10;77.40
59855;DHT22;45732;52.850;6.896;2023-04-19T17:11:32;19.40;77.80
59855;DHT22;45732;52.850;6.896;2023-04-19T17:13:58;19.90;75.80
59855;DHT22;45732;52.850;6.896;2023-04-19T17:16:24;20.20;75.00
59855;DHT22;45732;52.850;6.896;2023-04-19T17:18:54;20.60;74.20
59855;DHT22;45732;52.850;6.896;2023-04-19T17:21:20;20.70;72.90
59855;DHT22;45732;52.850;6.896;2023-04-19T17:23:46;20.70;74.50
59855;DHT22;45732;52.850;6.896;2023-04-19T17:26:13;20.90;73.90
59855;DHT22;45732;52.850;6.896;2023-04-19T17:28:38;20.50;72.60
59855;DHT22;45732;52.850;6.896;2023-04-19T17:31:06;19.80;74.10
59855;DHT22;45732;52.850;6.896;2023-04-19T17:33:32;19.30;74.20
59855;DHT22;45732;52.850;6.896;2023-04-19T17:35:58;19.00;75.00
59855;DHT22;45732;52.850;6.896;2023-04-19T17:38:24;18.80;72.30
59855;DHT22;45732;52.850;6.896;2023-04-19T17:40:49;18.60;72.70
59855;DHT22;45732;52.850;6.896;2023-04-19T17:43:15;18.80;72.70
59855;DHT22;45732;52.850;6.896;2023-04-19T17:45:41;19.00;71.90
59855;DHT22;45732;52.850;6.896;2023-04-19T17:48:06;19.10;70.90
59855;DHT22;45732;52.850;6.896;2023-04-19T17:50:32;18.90;69.30
59855;DHT22;45732;52.850;6.896;2023-04-19T17:52:58;18.80;69.50
59855;DHT22;45732;52.850;6.896;2023-04-19T17:55:24;18.70;69.30
59855;DHT22;45732;52.850;6.896;2023-04-19T17:57:50;18.40;69.60
59855;DHT22;45732;52.850;6.896;2023-04-19T18:00:16;18.10;70.00
59855;DHT22;45732;52.850;6.896;2023-04-19T18:02:41;17.70;70.10
59855;DHT22;45732;52.850;6.896;2023-04-19T18:05:08;17.60;69.80
59855;DHT22;45732;52.850;6.896;2023-04-19T18:07:36;17.30;69.90
59855;DHT22;45732;52.850;6.896;2023-04-19T18:10:02;17.10;70.10
59855;DHT22;45732;52.850;6.896;2023-04-19T18:12:28;16.50;70.50
59855;DHT22;45732;52.850;6.896;2023-04-19T18:14:54;16.60;70.60
59855;DHT22;45732;52.850;6.896;2023-04-19T18:17:20;16.20;70.20
59855;DHT22;45732;52.850;6.896;2023-04-19T18:19:46;15.80;70.30
59855;DHT22;45732;52.850;6.896;2023-04-19T18:22:11;15.50;71.10
59855;DHT22;45732;52.850;6.896;2023-04-19T18:24:37;15.10;71.20
59855;DHT22;45732;52.850;6.896;2023-04-19T18:27:05;14.80;71.70
59855;DHT22;45732;52.850;6.896;2023-04-19T18:29:31;14.30;72.70
59855;DHT22;45732;52.850;6.896;2023-04-19T18:31:56;14.10;72.70
59855;DHT22;45732;52.850;6.896;2023-04-19T18:34:22;13.80;73.70
59855;DHT22;45732;52.850;6.896;2023-04-19T18:36:48;13.50;74.30